Taylor Fork

This weather station provides wind speed, gust or max wind speed, and wind direction at 9460 ft. near Pika Point above Sunlight Basin.  

This data can be used with temperature and precipitation data from the Carrot Basin SNOTEL site. If the data below is not displayed or up to date, view data here.

This weather station was purchased by the Friends of the Avalanche Center.

Elevation
9460ft
Jump to table bottom
Date Time Temperature
deg F
RH, % Wind Speed Wind Gust Wind Direction
03/27/20 14:00 60.0 33 0 1 NW - 302
03/27/20 13:00 52.4 37 0 1 NW - 327
03/27/20 12:00 54.1 47 0 0 N - 21
03/27/20 11:00 47.9 50 0 0 N - 18
03/27/20 10:00 36.2 66 0 3 NE - 45
03/27/20 09:00 18.8 79 0 2 S - 164
03/27/20 08:00 8.8 87 2 5 N - 14
03/27/20 07:00 6.5 89 3 6 E - 91
03/27/20 06:00 5.5 85 4 7 W - 261
03/27/20 05:00 7.3 81 5 8 SW - 247
03/27/20 04:00 8.1 78 5 8 W - 258
03/27/20 03:00 8.6 76 9 15 W - 250
03/27/20 02:00 8.8 76 10 16 SW - 232
03/27/20 01:00 7.3 78 11 15 SW - 225
03/27/20 00:00 8.8 74 13 16 SW - 220
03/26/20 23:00 9.0 73 13 18 SW - 216
03/26/20 22:00 9.1 69 11 17 SW - 213
03/26/20 21:00 8.8 71 10 14 SW - 223
03/26/20 20:00 9.9 71 10 16 SW - 229
03/26/20 19:00 10.6 70 9 14 SW - 233
03/26/20 18:00 14.1 64 12 21 SW - 247
03/26/20 17:00 13.8 63 13 25 SW - 230
03/26/20 16:00 13.7 67 12 19 SW - 230
03/26/20 15:00 14.3 68 10 21 W - 258
03/26/20 14:00 13.6 68 12 21 SW - 247
03/26/20 13:00 13.3 67 13 21 SW - 244
03/26/20 12:00 14.4 85 11 20 W - 258
03/26/20 11:00 13.0 89 9 17 SW - 243
03/26/20 10:00 10.8 89 9 16 W - 288
03/26/20 09:00 10.0 90 5 9 SW - 243
03/26/20 08:00 9.1 90 4 7 W - 268
03/26/20 07:00 7.3 90 4 8 N - 338
03/26/20 06:00 7.5 91 6 10 W - 278
03/26/20 05:00 7.9 91 6 10 SW - 244
03/26/20 04:00 8.8 91 6 10 W - 263
03/26/20 03:00 8.6 91 7 11 SW - 206
03/26/20 02:00 8.6 91 3 9 NW - 305
03/26/20 01:00 9.0 91 4 7 NW - 300
03/26/20 00:00 10.0 91 6 14 NW - 305
03/25/20 23:00 11.6 92 4 11 N - 351
03/25/20 22:00 11.9 92 7 14 W - 289
03/25/20 21:00 12.8 92 12 21 SW - 220
03/25/20 20:00 13.1 92 14 24 SW - 219
03/25/20 19:00 13.1 92 16 24 SW - 227
03/25/20 18:00 13.1 92 14 21 SW - 215
03/25/20 17:00 14.3 92 12 20 SW - 212
03/25/20 16:00 15.6 92 12 23 S - 201
03/25/20 15:00 15.0 92 14 24 SW - 208
03/25/20 14:00 17.1 92 12 19 SW - 229
03/25/20 13:00 15.3 92 15 22 SW - 234